RKPK/PUS METAR and TAF weather

Enter ICAO airport designator
Station Type Date Time Source
RKPK METAR 2020/03/29 14:00 UTC NOAA

RKPK 291400Z 04010KT CAVOK 10/02 Q1021


Station Type Date Time Source
RKPK Decoded METAR 2020/03/29 14:00 UTC NOAA

Pusan / Kimhae International Airport, Korea, South (RKPK) 35-11N 128-56E 6M
Mar 29, 2020 - 10:00 AM EDT / 2020.03.29 1400 UTC
Wind: from the NE (040 degrees) at 12 MPH (10 KT):0
Visibility: greater than 7 mile(s):0
Temperature: 50 F (10 C)
Dew Point: 35 F (2 C)
Relative Humidity: 57%
Pressure (altimeter): 30.15 in. Hg (1021 hPa)
ob: RKPK 291400Z 04010KT CAVOK 10/02 Q1021
cycle: 14

Station Type Date Time Source
RKPK TAF 2020/03/29 12:07 UTC NOAA

TAF RKPK 291100Z 2912/3018 03010KT 9999 SCT030 BKN100 TN06/2921Z TX17/3006Z

Example: see airport list